Time;durP1;ratioP1;P1;durP2;ratioP2;P2;SDS_P1;SDS_P2;PMS_P1;PMS_P2;Temp;Humidity;BMP_temperature;BMP_pressure;BME280_temperature;BME280_humidity;BME280_pressure;Samples;Min_cycle;Max_cycle;Signal;HPM_P1;HPM_P2
2022/01/12 00:01:40;;;;;;;;;8.50;8.50;;;;;22.70;39.79;103485.81;5043426;28;45483;-76
2022/01/12 00:04:05;;;;;;;;;10.75;10.75;;;;;22.77;39.70;103500.28;5060524;28;45464;-76
2022/01/12 00:06:31;;;;;;;;;16.00;12.00;;;;;22.77;39.86;103507.44;5053359;28;46967;-76
2022/01/12 00:08:59;;;;;;;;;11.00;10.50;;;;;22.81;40.11;103511.53;5043062;28;45396;-76
2022/01/12 00:11:24;;;;;;;;;11.75;11.75;;;;;22.72;39.52;103505.97;5053803;28;45280;-76
2022/01/12 00:13:51;;;;;;;;;9.50;9.25;;;;;22.47;40.05;103460.09;5054564;28;45452;-75
2022/01/12 00:16:18;;;;;;;;;10.00;8.25;;;;;22.78;40.13;103517.06;5054631;28;46198;-75
2022/01/12 00:18:45;;;;;;;;;9.75;9.00;;;;;22.66;39.79;103510.88;5051338;28;45383;-75
2022/01/12 00:21:11;;;;;;;;;8.00;8.00;;;;;22.77;39.65;103524.19;5051305;28;45575;-75
2022/01/12 00:23:38;;;;;;;;;11.25;9.75;;;;;22.76;39.56;103516.34;5042500;28;45386;-75
2022/01/12 00:26:11;;;;;;;;;8.50;8.50;;;;;22.74;40.00;103506.69;5040112;28;46616;-75
2022/01/12 00:34:08;;;;;;;;;9.25;9.25;;;;;22.71;39.73;103511.41;5043068;28;45634;-75
2022/01/12 00:36:34;;;;;;;;;11.25;10.75;;;;;22.59;40.26;103492.78;5039413;28;46219;-75
2022/01/12 00:39:01;;;;;;;;;13.25;9.00;;;;;22.65;39.42;103501.22;5042981;28;47353;-75
2022/01/12 00:41:27;;;;;;;;;13.50;9.75;;;;;22.61;39.90;103504.13;5062665;28;45255;-76
2022/01/12 00:44:00;;;;;;;;;12.50;10.00;;;;;22.68;39.50;103516.91;5067863;27;45390;-76
2022/01/12 00:46:28;;;;;;;;;10.50;10.00;;;;;22.70;39.36;103523.81;5054816;28;46447;-75
2022/01/12 00:48:55;;;;;;;;;9.75;9.50;;;;;22.59;39.68;103503.38;5055563;28;45416;-75
2022/01/12 00:51:22;;;;;;;;;11.00;11.00;;;;;22.65;39.41;103507.38;5046456;28;45367;-75
2022/01/12 00:53:48;;;;;;;;;10.00;10.00;;;;;22.70;39.79;103515.00;5043744;28;45512;-75
2022/01/12 00:56:13;;;;;;;;;7.00;6.50;;;;;22.69;39.22;103518.63;5038508;28;45303;-76
2022/01/12 00:58:39;;;;;;;;;12.25;9.75;;;;;22.65;39.60;103503.88;5046498;28;45292;-76
2022/01/12 01:01:04;;;;;;;;;12.00;9.00;;;;;22.67;39.72;103500.13;5051370;28;45548;-75
2022/01/12 01:03:31;;;;;;;;;9.00;9.00;;;;;22.67;39.62;103508.09;5051131;28;45620;-75
2022/01/12 01:05:57;;;;;;;;;11.50;10.50;;;;;22.67;39.55;103505.44;5052204;28;47086;-75
2022/01/12 01:08:23;;;;;;;;;9.00;9.00;;;;;22.58;39.14;103498.22;5037792;28;45366;-76
2022/01/12 01:10:51;;;;;;;;;9.75;9.75;;;;;22.60;39.18;103498.94;5041170;28;45388;-75
2022/01/12 01:13:25;;;;;;;;;12.00;12.00;;;;;22.67;38.80;103496.63;5043119;28;45580;-75
2022/01/12 01:16:03;;;;;;;;;8.50;8.50;;;;;22.66;38.84;103487.84;5042002;28;46631;-75
2022/01/12 01:26:45;;;;;;;;;11.75;9.75;;;;;22.65;39.22;103466.72;5041347;28;45504;-75
2022/01/12 01:29:10;;;;;;;;;11.00;9.50;;;;;22.61;39.25;103469.63;5052192;28;45270;-75
2022/01/12 01:31:37;;;;;;;;;9.00;9.00;;;;;22.50;39.32;103451.06;5041658;28;45263;-76
2022/01/12 01:34:12;;;;;;;;;11.00;9.00;;;;;22.63;38.87;103473.03;5048947;28;45454;-76
2022/01/12 01:36:56;;;;;;;;;8.75;7.50;;;;;22.63;38.79;103483.63;5043625;28;47070;-75
2022/01/12 01:39:25;;;;;;;;;10.75;9.25;;;;;22.48;39.19;103456.47;5043521;28;45441;-75
2022/01/12 01:42:00;;;;;;;;;9.25;8.50;;;;;22.63;39.01;103490.75;5051182;28;45427;-74
2022/01/12 01:55:10;;;;;;;;;13.00;10.25;;;;;22.59;39.27;103502.53;5046993;28;45711;-76
2022/01/12 01:57:36;;;;;;;;;10.25;10.25;;;;;22.58;38.91;103504.38;5050052;28;46197;-76
2022/01/12 02:00:05;;;;;;;;;11.00;10.25;;;;;22.59;39.07;103507.84;5055503;28;45322;-76
2022/01/12 02:02:31;;;;;;;;;14.00;10.00;;;;;22.44;39.13;103488.66;5053670;28;45591;-76
2022/01/12 02:04:56;;;;;;;;;10.75;10.25;;;;;22.50;38.71;103493.50;5054480;28;45330;-75
2022/01/12 02:07:22;;;;;;;;;10.50;10.50;;;;;22.54;38.58;103494.94;5051439;28;47154;-75
2022/01/12 02:09:47;;;;;;;;;9.75;9.00;;;;;22.56;39.10;103508.13;5052370;28;45331;-75
2022/01/12 02:12:13;;;;;;;;;10.25;10.00;;;;;22.56;38.78;103524.03;5045224;28;45472;-76
2022/01/12 02:14:39;;;;;;;;;11.00;10.50;;;;;22.48;38.53;103517.47;5054545;28;45371;-74
2022/01/12 02:17:18;;;;;;;;;10.00;10.00;;;;;22.53;38.77;103519.81;5054507;28;47166;-75
2022/01/12 02:36:20;;;;;;;;;13.50;9.50;;;;;22.48;38.87;103543.19;5042061;28;45448;-76
2022/01/12 02:41:30;;;;;;;;;12.25;9.00;;;;;22.54;38.44;103552.47;5049248;28;45302;-76
2022/01/12 02:55:25;;;;;;;;;9.25;9.25;;;;;22.51;38.58;103535.81;5025003;28;45464;-76
2022/01/12 02:57:51;;;;;;;;;14.00;11.00;;;;;22.39;38.20;103520.84;5024149;28;45594;-75
2022/01/12 03:00:19;;;;;;;;;10.50;10.25;;;;;22.40;38.18;103522.56;5024135;28;46286;-76
2022/01/12 03:02:50;;;;;;;;;11.50;11.25;;;;;22.50;38.00;103544.75;5020600;28;45452;-76
2022/01/12 03:07:43;;;;;;;;;9.25;9.25;;;;;22.51;38.70;103556.19;5023179;28;45520;-76
2022/01/12 03:10:11;;;;;;;;;10.25;9.25;;;;;22.51;38.64;103558.84;5023849;28;46133;-76
2022/01/12 03:12:42;;;;;;;;;10.50;8.00;;;;;22.51;38.62;103565.00;5025057;28;45381;-76
2022/01/12 03:15:08;;;;;;;;;9.50;7.50;;;;;22.48;38.17;103557.28;5034753;28;45425;-75
2022/01/12 03:17:34;;;;;;;;;12.00;9.00;;;;;22.36;38.34;103540.50;5033900;28;45655;-73
2022/01/12 03:20:00;;;;;;;;;12.00;10.00;;;;;22.51;38.59;103561.50;5028479;28;46392;-75
2022/01/12 03:22:25;;;;;;;;;8.50;8.50;;;;;22.49;38.13;103564.28;5013971;28;45969;-75
2022/01/12 03:24:50;;;;;;;;;8.25;8.25;;;;;22.49;38.11;103560.78;5034355;28;45420;-76
2022/01/12 03:27:16;;;;;;;;;12.00;10.00;;;;;22.23;38.28;103521.16;5030621;28;45399;-75
2022/01/12 03:29:44;;;;;;;;;13.00;9.00;;;;;22.45;38.67;103551.38;5027386;28;46619;-75
2022/01/12 03:32:12;;;;;;;;;9.75;8.50;;;;;22.46;38.41;103561.00;5031250;28;45314;-75
2022/01/12 03:34:41;;;;;;;;;10.50;9.25;;;;;22.41;38.53;103553.41;5028221;28;45543;-73
2022/01/12 03:39:50;;;;;;;;;10.00;9.00;;;;;22.43;38.07;103566.56;5028671;28;45508;-76
2022/01/12 03:42:16;;;;;;;;;11.00;9.00;;;;;22.37;38.05;103555.47;5023139;28;45418;-75
2022/01/12 03:44:41;;;;;;;;;10.75;10.75;;;;;22.25;38.00;103543.13;5025685;28;45298;-75
2022/01/12 03:47:06;;;;;;;;;10.00;8.50;;;;;22.46;38.29;103579.59;5035711;28;45378;-75
2022/01/12 03:49:32;;;;;;;;;11.00;9.75;;;;;22.45;37.90;103575.25;5025606;28;46073;-76
2022/01/12 03:51:59;;;;;;;;;9.00;9.00;;;;;22.45;38.40;103576.09;5027024;28;45307;-76
2022/01/12 03:54:25;;;;;;;;;13.50;11.25;;;;;22.41;38.14;103571.97;5025439;28;45748;-76
2022/01/12 03:56:50;;;;;;;;;14.00;10.50;;;;;22.23;38.49;103550.34;5034475;28;45550;-75
2022/01/12 03:59:15;;;;;;;;;10.00;10.00;;;;;22.33;38.19;103580.50;5017972;28;45394;-75
2022/01/12 04:01:41;;;;;;;;;11.00;9.75;;;;;22.34;38.44;103581.38;5021107;28;45475;-75
2022/01/12 04:04:10;;;;;;;;;9.75;8.00;;;;;22.36;38.27;103582.94;5024499;28;45754;-75
2022/01/12 04:09:20;;;;;;;;;10.00;9.50;;;;;22.39;38.00;103588.03;5033217;28;45553;-75
2022/01/12 04:11:46;;;;;;;;;10.50;10.50;;;;;22.36;37.88;103598.00;5018716;28;45438;-75
2022/01/12 04:14:12;;;;;;;;;9.00;8.25;;;;;22.43;38.37;103603.72;5034194;28;45330;-75
2022/01/12 04:16:38;;;;;;;;;10.50;10.00;;;;;22.39;37.95;103601.28;5032059;28;45419;-76
2022/01/12 04:19:05;;;;;;;;;9.50;9.25;;;;;22.35;38.05;103599.81;5021738;28;46322;-75
2022/01/12 04:21:34;;;;;;;;;10.75;9.75;;;;;22.42;38.39;103613.47;5022552;28;45441;-75
2022/01/12 04:23:59;;;;;;;;;9.75;9.75;;;;;22.30;38.06;103604.63;5027782;28;45481;-75
2022/01/12 04:26:26;;;;;;;;;12.25;11.00;;;;;22.42;37.63;103629.38;5031560;28;45272;-76
2022/01/12 04:28:52;;;;;;;;;9.00;6.50;;;;;22.36;38.01;103614.78;5024790;28;46234;-76
2022/01/12 04:31:18;;;;;;;;;8.25;8.25;;;;;22.40;38.05;103618.06;5026957;28;45355;-76
2022/01/12 04:33:45;;;;;;;;;8.25;7.75;;;;;22.27;38.01;103595.09;5036852;28;45378;-75
2022/01/12 04:36:12;;;;;;;;;11.50;11.50;;;;;22.36;38.08;103605.97;5036460;28;45629;-75
2022/01/12 04:38:39;;;;;;;;;8.75;8.75;;;;;22.40;37.65;103615.41;5037527;28;45564;-75
2022/01/12 04:41:06;;;;;;;;;8.25;7.75;;;;;22.18;38.08;103580.72;5022717;28;45499;-75
2022/01/12 04:43:33;;;;;;;;;10.75;10.75;;;;;22.31;38.05;103601.00;5027440;28;45538;-76
2022/01/12 04:48:37;;;;;;;;;8.00;8.00;;;;;22.34;37.92;103603.44;5024620;28;46021;-75
2022/01/12 04:51:03;;;;;;;;;8.00;8.00;;;;;22.39;38.05;103606.59;5023941;28;45552;-75
2022/01/12 04:53:31;;;;;;;;;8.50;8.50;;;;;22.39;37.63;103611.03;5035121;28;45560;-75
2022/01/12 04:55:57;;;;;;;;;13.50;10.50;;;;;22.37;37.44;103605.88;5032373;28;45424;-75
2022/01/12 04:58:22;;;;;;;;;9.25;9.25;;;;;22.44;37.90;103613.34;5035976;28;45476;-75
2022/01/12 05:00:51;;;;;;;;;7.25;7.25;;;;;22.43;37.58;103606.38;5024760;28;45386;-75
2022/01/12 05:13:56;;;;;;;;;9.75;8.50;;;;;22.44;37.61;103600.06;5034984;28;45509;-76
2022/01/12 05:16:22;;;;;;;;;11.25;10.00;;;;;22.44;37.17;103594.78;5033446;28;45323;-75
2022/01/12 05:18:49;;;;;;;;;10.00;9.00;;;;;22.44;37.10;103600.06;5035551;28;46137;-76
2022/01/12 05:21:17;;;;;;;;;10.75;8.50;;;;;22.43;37.29;103599.22;5035282;28;45417;-76
2022/01/12 05:23:42;;;;;;;;;11.00;8.00;;;;;22.44;37.46;103598.28;5036038;28;45234;-75
2022/01/12 05:26:08;;;;;;;;;13.50;10.25;;;;;22.37;37.20;103591.75;5036696;28;45355;-76
2022/01/12 05:28:34;;;;;;;;;9.25;8.50;;;;;22.38;37.51;103594.28;5033730;28;46190;-76
2022/01/12 05:31:01;;;;;;;;;10.50;9.00;;;;;22.34;36.98;103584.00;5035512;28;45350;-75
2022/01/12 05:33:28;;;;;;;;;11.50;9.00;;;;;22.25;37.36;103567.81;5035253;28;45413;-75
2022/01/12 05:35:55;;;;;;;;;10.50;9.25;;;;;22.42;37.15;103608.16;5019720;28;45508;-76
2022/01/12 05:38:21;;;;;;;;;9.50;8.25;;;;;22.40;37.35;103597.66;5033819;28;45317;-75
2022/01/12 05:40:52;;;;;;;;;10.25;8.75;;;;;22.40;37.33;103592.34;5036769;28;45334;-75
2022/01/12 05:43:23;;;;;;;;;12.00;9.75;;;;;22.44;37.77;103613.34;5034996;28;45377;-75
2022/01/12 05:45:50;;;;;;;;;9.75;8.00;;;;;22.08;37.59;103555.84;5036016;28;45349;-76
2022/01/12 05:50:42;;;;;;;;;10.50;8.50;;;;;22.43;37.30;103622.28;5035313;28;45483;-76
2022/01/12 05:53:08;;;;;;;;;10.75;10.75;;;;;22.42;37.75;103621.44;5037309;28;45354;-76
2022/01/12 05:55:34;;;;;;;;;9.00;8.50;;;;;22.42;37.34;103621.44;5035898;28;45360;-76
2022/01/12 05:57:59;;;;;;;;;8.00;7.75;;;;;22.31;37.61;103606.31;5021490;28;48308;-75
2022/01/12 06:00:26;;;;;;;;;9.00;9.00;;;;;22.35;37.52;103615.72;5032790;28;45449;-75
2022/01/12 06:02:52;;;;;;;;;7.25;7.25;;;;;22.34;37.74;103611.41;5015495;28;45453;-76
2022/01/12 06:05:19;;;;;;;;;10.25;9.00;;;;;22.40;37.09;103623.34;5035493;28;45490;-76
2022/01/12 06:07:46;;;;;;;;;10.00;7.75;;;;;22.32;37.54;103617.78;5034181;28;45512;-75
2022/01/12 06:10:12;;;;;;;;;8.75;8.25;;;;;22.40;37.17;103626.81;5028365;28;45326;-76
2022/01/12 06:12:38;;;;;;;;;9.75;9.75;;;;;22.23;37.32;103600.72;5017751;28;45465;-75
2022/01/12 06:15:04;;;;;;;;;9.75;9.50;;;;;22.33;37.24;103622.94;5020317;28;45566;-76
2022/01/12 06:17:29;;;;;;;;;9.25;9.25;;;;;22.30;37.18;103620.56;5035249;28;46156;-75
2022/01/12 06:19:55;;;;;;;;;12.50;9.00;;;;;22.33;37.09;103627.44;5022060;28;45274;-75
2022/01/12 06:22:20;;;;;;;;;8.25;8.25;;;;;22.26;37.20;103624.38;5033193;28;45898;-76
2022/01/12 06:24:45;;;;;;;;;8.50;8.00;;;;;22.37;37.06;103634.19;5025793;28;45448;-75
2022/01/12 06:27:14;;;;;;;;;9.00;9.00;;;;;22.35;37.21;103634.28;5033740;28;46339;-76
2022/01/12 06:29:43;;;;;;;;;8.00;6.00;;;;;22.36;37.18;103630.69;5017038;28;45438;-75
2022/01/12 06:32:09;;;;;;;;;10.25;9.00;;;;;22.36;37.49;103637.78;5036218;28;45461;-76
2022/01/12 06:34:35;;;;;;;;;9.50;9.25;;;;;22.32;37.28;103639.00;5035566;28;45640;-76
2022/01/12 06:37:01;;;;;;;;;12.75;11.75;;;;;22.34;37.51;103635.25;5033644;28;47265;-76
2022/01/12 06:39:26;;;;;;;;;11.75;9.25;;;;;22.34;37.60;103643.22;5035566;28;45268;-76
2022/01/12 06:41:54;;;;;;;;;11.00;11.00;;;;;22.34;37.64;103643.22;5035409;28;45425;-76
2022/01/12 06:44:21;;;;;;;;;11.00;9.00;;;;;22.32;37.38;103653.09;5035841;28;45391;-75
2022/01/12 06:46:49;;;;;;;;;11.25;8.25;;;;;22.34;37.42;103661.78;5021221;28;46559;-75
2022/01/12 06:49:16;;;;;;;;;8.75;8.25;;;;;22.26;37.46;103642.94;5021612;28;45393;-76
2022/01/12 06:51:45;;;;;;;;;9.25;7.50;;;;;22.35;37.01;103660.00;5026469;28;45388;-76
2022/01/12 06:54:12;;;;;;;;;10.75;10.00;;;;;22.34;37.08;103667.09;5033913;28;45314;-75
2022/01/12 06:56:38;;;;;;;;;12.25;10.50;;;;;22.34;37.44;103672.41;5028210;28;47099;-75
2022/01/12 06:59:04;;;;;;;;;8.75;8.25;;;;;22.20;37.24;103638.09;5033450;28;45377;-75
2022/01/12 07:01:30;;;;;;;;;10.00;10.00;;;;;22.36;37.32;103674.94;5029510;28;45690;-76
2022/01/12 07:03:55;;;;;;;;;11.00;9.00;;;;;22.36;37.15;103672.28;5026780;28;45486;-77
2022/01/12 07:06:21;;;;;;;;;8.50;8.50;;;;;22.35;37.03;103673.25;5033137;28;46071;-76
2022/01/12 07:08:47;;;;;;;;;11.25;8.75;;;;;22.33;37.37;103676.00;5034560;28;45349;-76
2022/01/12 07:11:12;;;;;;;;;10.50;9.75;;;;;22.35;36.89;103682.03;5020299;28;45355;-75
2022/01/12 07:13:37;;;;;;;;;7.50;7.00;;;;;22.20;37.01;103661.97;5035080;28;45453;-76
2022/01/12 07:16:03;;;;;;;;;8.00;8.00;;;;;22.38;37.04;103694.22;5030651;28;46035;-75
2022/01/12 07:18:29;;;;;;;;;9.50;8.25;;;;;22.37;36.88;103698.72;5034005;28;45412;-76
2022/01/12 07:20:55;;;;;;;;;11.25;8.75;;;;;22.28;37.01;103696.72;5034278;28;45429;-76
2022/01/12 07:23:21;;;;;;;;;9.00;8.25;;;;;22.28;37.14;103681.66;5035309;28;45384;-76
2022/01/12 07:25:46;;;;;;;;;8.75;8.75;;;;;22.36;37.25;103698.78;5022149;28;46188;-75
2022/01/12 07:28:11;;;;;;;;;9.00;8.25;;;;;22.35;37.27;103703.25;5023413;28;45365;-75
2022/01/12 07:30:37;;;;;;;;;11.25;9.00;;;;;22.24;37.08;103682.00;5023231;28;45480;-75
2022/01/12 07:33:02;;;;;;;;;7.00;7.00;;;;;22.34;37.21;103701.56;5020159;28;45512;-75
2022/01/12 07:35:28;;;;;;;;;9.00;9.00;;;;;22.34;37.23;103706.03;5023755;28;46260;-75
2022/01/12 07:37:53;;;;;;;;;11.00;10.50;;;;;22.31;37.32;103700.94;5031311;28;45465;-76
2022/01/12 07:40:18;;;;;;;;;9.00;8.00;;;;;22.34;36.90;103711.34;5029526;28;45482;-75
2022/01/12 07:42:45;;;;;;;;;8.25;8.25;;;;;22.31;36.99;103712.41;5026977;28;45494;-75
2022/01/12 07:45:10;;;;;;;;;11.00;8.25;;;;;22.30;37.67;103718.69;5025669;28;46491;-74
2022/01/12 07:47:36;;;;;;;;;9.75;8.25;;;;;22.31;37.56;103730.97;5018138;28;45469;-74
2022/01/12 07:50:03;;;;;;;;;10.00;9.50;;;;;22.35;37.12;103737.72;5032670;28;45347;-73
2022/01/12 07:52:30;;;;;;;;;9.75;9.50;;;;;22.35;37.67;103750.19;5028556;28;45449;-73
2022/01/12 07:54:56;;;;;;;;;7.50;7.25;;;;;22.29;37.55;103747.00;5033280;28;46522;-73
2022/01/12 07:57:21;;;;;;;;;8.25;7.75;;;;;22.36;37.67;103760.66;5030287;28;45589;-73
2022/01/12 07:59:46;;;;;;;;;11.00;7.25;;;;;22.37;37.65;103766.81;5034233;28;45512;-73
2022/01/12 08:02:12;;;;;;;;;9.25;9.25;;;;;22.37;37.57;103770.31;5030577;28;45446;-73
2022/01/12 08:04:38;;;;;;;;;9.00;7.75;;;;;22.36;37.63;103778.38;5038078;28;46712;-73
2022/01/12 08:07:04;;;;;;;;;9.50;9.50;;;;;22.27;37.20;103761.34;5035811;28;45517;-73
2022/01/12 08:09:30;;;;;;;;;9.50;9.25;;;;;22.38;37.43;103782.63;5013437;28;45529;-73
2022/01/12 08:11:56;;;;;;;;;8.75;8.00;;;;;22.39;37.18;103794.94;5036998;28;45488;-73
2022/01/12 08:14:21;;;;;;;;;10.50;9.00;;;;;22.39;37.46;103794.94;5037499;28;45557;-73
2022/01/12 08:16:47;;;;;;;;;9.25;7.00;;;;;22.30;37.55;103782.34;5038046;28;45444;-73
2022/01/12 08:19:16;;;;;;;;;11.25;9.00;;;;;22.27;37.35;103787.88;5028678;28;45521;-73
2022/01/12 08:21:42;;;;;;;;;8.25;8.25;;;;;22.27;37.17;103787.88;5029545;28;45366;-73
2022/01/12 08:24:07;;;;;;;;;9.00;9.00;;;;;22.31;37.73;103799.94;5036286;28;47131;-73
2022/01/12 08:26:32;;;;;;;;;9.00;9.00;;;;;22.43;37.02;103815.94;5029681;28;45366;-73
2022/01/12 08:28:58;;;;;;;;;9.00;8.00;;;;;22.44;37.21;103817.63;5037362;28;45635;-73
2022/01/12 08:31:23;;;;;;;;;9.00;9.00;;;;;22.32;37.57;103801.66;5024599;28;45507;-73
2022/01/12 08:33:49;;;;;;;;;8.50;8.50;;;;;22.45;37.28;103816.66;5030178;28;45918;-73
2022/01/12 08:36:15;;;;;;;;;8.75;8.00;;;;;22.46;37.42;103818.34;5036586;28;45412;-73
2022/01/12 08:38:41;;;;;;;;;7.25;7.25;;;;;22.46;37.59;103824.50;5033673;28;45354;-73
2022/01/12 08:41:06;;;;;;;;;8.75;8.00;;;;;22.28;37.42;103792.19;5021817;28;45359;-73
2022/01/12 08:43:32;;;;;;;;;8.25;8.00;;;;;22.49;37.11;103828.75;5035261;28;45925;-73
2022/01/12 08:45:57;;;;;;;;;14.00;10.75;;;;;22.38;37.24;103810.94;5023966;28;45406;-73
2022/01/12 08:48:23;;;;;;;;;7.00;7.00;;;;;22.49;37.03;103834.91;5035618;28;45489;-73
2022/01/12 08:50:48;;;;;;;;;10.75;10.00;;;;;22.41;37.23;103818.69;5020969;28;45221;-73
2022/01/12 08:53:14;;;;;;;;;10.25;9.75;;;;;22.49;37.36;103842.00;5033429;28;47266;-73
2022/01/12 08:55:40;;;;;;;;;10.00;8.25;;;;;22.23;37.04;103795.19;5033999;28;45398;-73
2022/01/12 08:58:05;;;;;;;;;10.25;9.00;;;;;22.52;37.34;103833.84;5032258;28;45595;-73
2022/01/12 09:00:31;;;;;;;;;9.25;8.25;;;;;22.52;37.25;103842.66;5034792;28;45858;-73
2022/01/12 09:02:57;;;;;;;;;8.25;8.25;;;;;22.44;37.36;103834.38;5005405;28;47017;-73
2022/01/12 09:05:22;;;;;;;;;8.75;7.00;;;;;22.53;36.75;103848.81;5034692;28;45588;-73
2022/01/12 09:07:48;;;;;;;;;7.25;7.00;;;;;22.34;37.52;103818.28;5024085;28;45358;-73
2022/01/12 09:10:13;;;;;;;;;9.75;7.50;;;;;22.52;36.88;103847.09;5028372;28;45672;-73
2022/01/12 09:12:39;;;;;;;;;7.00;5.25;;;;;22.52;36.89;103855.06;5035662;28;46969;-73
2022/01/12 09:15:06;;;;;;;;;8.50;7.25;;;;;22.46;37.37;103845.72;5031261;28;45564;-72
2022/01/12 09:17:32;;;;;;;;;9.50;9.00;;;;;22.33;36.71;103815.75;5026139;28;45336;-73
2022/01/12 09:19:57;;;;;;;;;12.50;9.00;;;;;22.52;37.42;103845.31;5037242;28;45471;-74
2022/01/12 09:22:24;;;;;;;;;7.50;7.00;;;;;22.52;37.33;103855.06;5035729;28;46201;-75
2022/01/12 09:24:49;;;;;;;;;10.00;9.00;;;;;22.53;36.89;103862.06;5036092;28;45463;-75
2022/01/12 09:27:16;;;;;;;;;7.25;7.25;;;;;22.53;37.46;103854.13;5034904;28;45407;-75
2022/01/12 09:29:43;;;;;;;;;9.50;9.50;;;;;22.53;37.00;103848.81;5034794;28;45286;-76
2022/01/12 09:32:09;;;;;;;;;9.50;9.50;;;;;22.51;37.33;103854.22;5037099;28;46000;-75
2022/01/12 09:34:35;;;;;;;;;8.25;7.25;;;;;22.44;36.96;103845.00;5022627;28;45460;-74
2022/01/12 09:37:00;;;;;;;;;9.50;9.25;;;;;22.52;36.95;103866.53;5025677;28;45383;-75
2022/01/12 09:39:26;;;;;;;;;10.25;9.50;;;;;22.52;36.98;103861.22;5026512;28;45304;-75
2022/01/12 09:41:51;;;;;;;;;8.75;8.75;;;;;22.52;37.41;103866.53;5018164;28;45542;-74
2022/01/12 09:44:17;;;;;;;;;10.00;8.25;;;;;22.52;37.29;103866.53;5029634;28;45295;-75
2022/01/12 09:46:43;;;;;;;;;10.50;8.25;;;;;22.52;37.33;103866.53;5036876;28;45403;-75
2022/01/12 09:49:08;;;;;;;;;10.50;9.25;;;;;22.48;36.85;103866.88;5027484;28;45447;-74
2022/01/12 09:51:34;;;;;;;;;8.00;7.00;;;;;22.46;36.84;103866.09;5027074;28;45967;-74
2022/01/12 09:53:59;;;;;;;;;10.25;9.00;;;;;22.45;37.13;103877.69;5035741;28;45351;-74
2022/01/12 09:56:29;;;;;;;;;9.50;6.50;;;;;22.53;36.78;103885.97;5022129;28;45521;-74
2022/01/12 09:58:57;;;;;;;;;8.25;7.00;;;;;22.54;37.33;103884.13;5035301;28;45470;-75
2022/01/12 10:01:27;;;;;;;;;7.50;7.50;;;;;22.54;36.79;103884.13;5025198;28;46243;-74
2022/01/12 10:04:03;;;;;;;;;9.25;8.50;;;;;22.55;36.80;103888.50;5029244;28;45401;-74
2022/01/12 10:06:38;;;;;;;;;9.75;8.50;;;;;22.56;36.93;103887.53;5034934;28;45522;-74
2022/01/12 10:09:03;;;;;;;;;9.00;8.00;;;;;22.47;37.07;103876.63;5028880;28;45315;-74
2022/01/12 10:11:29;;;;;;;;;10.25;6.25;;;;;22.57;36.91;103889.22;5034471;28;45336;-74
2022/01/12 10:13:56;;;;;;;;;9.25;7.75;;;;;22.52;36.84;103885.09;5035632;28;45667;-74
2022/01/12 10:16:26;;;;;;;;;8.00;8.00;;;;;22.51;36.73;103887.84;5031280;28;45302;-74
2022/01/12 10:18:53;;;;;;;;;12.50;8.75;;;;;22.57;37.42;103894.53;5034176;28;45621;-73
2022/01/12 10:21:29;;;;;;;;;9.00;9.00;;;;;22.58;37.37;103890.94;5027336;28;45606;-74
2022/01/12 10:24:06;;;;;;;;;8.00;7.00;;;;;22.60;36.77;103897.81;5017544;28;45446;-75
2022/01/12 10:26:37;;;;;;;;;8.25;8.25;;;;;22.61;37.34;103904.00;5032854;28;45239;-74
2022/01/12 10:29:26;;;;;;;;;8.25;7.00;;;;;22.48;36.93;103890.75;5031545;28;45381;-74
2022/01/12 10:31:57;;;;;;;;;7.00;5.75;;;;;22.62;37.25;103909.19;5034250;28;47655;-74
2022/01/12 10:34:26;;;;;;;;;8.25;8.25;;;;;22.62;36.78;103914.47;5026884;28;45394;-74
2022/01/12 10:36:53;;;;;;;;;9.75;9.25;;;;;22.61;36.82;103910.13;5034386;28;45427;-74
2022/01/12 10:39:21;;;;;;;;;8.50;8.00;;;;;22.33;37.06;103864.31;5032080;28;45493;-74
2022/01/12 10:42:02;;;;;;;;;8.75;6.25;;;;;22.61;37.17;103909.28;5034909;28;46528;-74
2022/01/12 10:44:37;;;;;;;;;7.75;7.25;;;;;22.62;36.74;103910.97;5033256;28;45508;-74
2022/01/12 10:47:10;;;;;;;;;9.00;7.00;;;;;22.61;36.85;103907.47;5027550;28;45446;-74
2022/01/12 10:49:41;;;;;;;;;8.25;8.00;;;;;22.55;37.27;103901.75;5034535;28;45580;-74
2022/01/12 10:52:09;;;;;;;;;9.75;9.00;;;;;22.50;37.25;103894.13;5014127;28;47399;-75
2022/01/12 10:54:55;;;;;;;;;7.00;7.00;;;;;22.62;37.36;103910.97;5034553;28;45338;-74
2022/01/12 10:57:25;;;;;;;;;8.25;8.25;;;;;22.61;37.26;103912.78;5033222;28;45422;-75
2022/01/12 11:00:07;;;;;;;;;7.75;7.75;;;;;22.61;37.16;103909.28;5034891;28;45365;-73
2022/01/12 11:02:34;;;;;;;;;11.25;9.00;;;;;22.49;37.23;103889.78;5033440;28;48142;-74
2022/01/12 11:05:00;;;;;;;;;6.25;5.00;;;;;22.61;37.00;103902.16;5035725;28;45437;-74
2022/01/12 11:07:26;;;;;;;;;7.25;7.25;;;;;22.61;37.12;103901.34;5034363;28;45533;-74
2022/01/12 11:09:55;;;;;;;;;7.00;7.00;;;;;22.54;36.54;103884.97;5032933;28;45443;-75
2022/01/12 11:12:20;;;;;;;;;8.25;8.25;;;;;22.61;37.09;103899.50;5033375;28;45493;-72
2022/01/12 11:14:46;;;;;;;;;8.25;8.00;;;;;22.52;37.04;103889.56;5018789;28;45397;-75
2022/01/12 11:17:11;;;;;;;;;8.25;8.25;;;;;22.61;37.36;103896.03;5018938;28;45406;-73
2022/01/12 11:19:40;;;;;;;;;8.25;8.25;;;;;22.59;37.08;103896.13;5022982;28;48082;-74
2022/01/12 11:22:34;;;;;;;;;8.00;8.00;;;;;22.61;36.76;103896.03;5029789;28;47686;-75
2022/01/12 11:24:59;;;;;;;;;8.00;7.75;;;;;22.58;37.06;103896.25;5029534;28;45542;-74
2022/01/12 11:27:25;;;;;;;;;11.50;9.25;;;;;22.50;36.95;103880.88;5025358;28;45960;-74
2022/01/12 11:29:50;;;;;;;;;7.00;7.00;;;;;22.53;36.96;103885.97;5034509;28;45596;-74
2022/01/12 11:32:22;;;;;;;;;9.00;9.00;;;;;22.60;37.22;103905.78;5018622;28;47010;-74
2022/01/12 11:35:01;;;;;;;;;8.00;7.50;;;;;22.58;36.69;103897.09;5035375;28;45241;-74
2022/01/12 11:37:27;;;;;;;;;7.25;7.00;;;;;22.61;36.56;103907.47;5028806;28;45382;-74
2022/01/12 11:39:52;;;;;;;;;10.00;8.00;;;;;22.49;36.99;103887.13;5032591;28;45598;-74
2022/01/12 11:42:18;;;;;;;;;8.00;8.00;;;;;22.57;36.96;103898.03;5023206;28;46022;-74
2022/01/12 11:44:44;;;;;;;;;7.75;7.75;;;;;22.62;36.82;103903.00;5025651;28;46611;-74
2022/01/12 11:47:21;;;;;;;;;7.75;7.25;;;;;22.63;36.67;103896.75;5035215;28;45417;-74
2022/01/12 11:49:52;;;;;;;;;8.25;7.25;;;;;22.62;36.76;103887.09;5029351;28;45512;-74
2022/01/12 11:52:27;;;;;;;;;6.50;6.50;;;;;22.63;37.22;103887.00;5030129;28;47102;-72
2022/01/12 11:55:07;;;;;;;;;9.50;8.25;;;;;22.63;36.37;103878.19;5033426;28;45259;-74
2022/01/12 11:57:38;;;;;;;;;10.25;8.50;;;;;22.63;36.74;103876.38;5030880;28;46308;-71
2022/01/12 12:00:11;;;;;;;;;7.00;6.25;;;;;22.65;36.98;103864.78;5027412;28;45507;-72
2022/01/12 12:02:40;;;;;;;;;6.25;6.25;;;;;22.61;37.15;103859.69;5031933;28;46337;-72
2022/01/12 12:05:13;;;;;;;;;8.75;7.00;;;;;22.64;37.13;103853.31;5035068;28;45441;-72
2022/01/12 12:07:52;;;;;;;;;7.00;7.00;;;;;22.60;36.86;103842.09;5022473;28;45416;-71
2022/01/12 12:10:21;;;;;;;;;9.25;7.75;;;;;22.66;36.54;103845.25;5029771;28;45466;-72
2022/01/12 12:12:47;;;;;;;;;9.50;7.25;;;;;22.66;37.40;103846.13;5025599;28;45588;-72
2022/01/12 12:15:13;;;;;;;;;8.00;7.00;;;;;22.67;36.74;103845.16;5033769;28;45442;-72
2022/01/12 12:17:40;;;;;;;;;8.50;8.25;;;;;22.68;37.26;103851.31;5016074;28;45371;-71
2022/01/12 12:20:08;;;;;;;;;8.00;8.00;;;;;22.68;36.95;103848.66;5034960;28;45530;-72
2022/01/12 12:22:38;;;;;;;;;10.50;8.25;;;;;22.67;36.78;103847.78;5030660;28;46382;-72
2022/01/12 12:25:11;;;;;;;;;8.50;6.50;;;;;22.68;37.46;103851.31;5030892;28;45421;-72
2022/01/12 12:27:43;;;;;;;;;8.00;8.00;;;;;22.67;36.89;103842.50;5027995;28;45478;-72
2022/01/12 12:30:12;;;;;;;;;10.50;8.00;;;;;22.68;36.86;103861.91;5020872;28;45283;-71
2022/01/12 12:32:46;;;;;;;;;7.75;6.50;;;;;22.68;37.49;103854.81;5033245;28;46343;-71
2022/01/12 12:35:20;;;;;;;;;8.00;8.00;;;;;22.69;36.85;103856.50;5030665;28;45307;-72
2022/01/12 12:37:49;;;;;;;;;5.25;5.25;;;;;22.68;37.01;103844.19;5023841;28;45464;-72
2022/01/12 12:40:21;;;;;;;;;7.75;7.75;;;;;22.60;37.30;103834.13;5021455;28;45457;-72
2022/01/12 12:42:50;;;;;;;;;7.50;7.50;;;;;22.70;37.37;103850.25;5021798;28;46268;-72